METAR Data
IDs: Format: Raw Decoded Include TAF

Data at: 2242 UTC 10 May 2021

KEEO 102153Z AUTO 16011KT 10SM -RA FEW023 BKN032 OVC050 04/01 A3002 RMK AO2 RAE00B35 SLP144 P0000 T00440011
KEEO 102053Z AUTO 04012KT 10SM -RA SCT031 BKN041 OVC095 07/01 A2999 RMK AO2 RAB43 SLP129 P0000 60000 T00670006 55003
KEEO 102038Z AUTO 03010KT 10SM SCT032 BKN046 OVC100 07/01 A2999 RMK AO2 LTG DSNT NE AND SW T00720006
KEEO 102021Z AUTO VRB03KT 10SM VCTS SCT030 BKN055 OVC110 07/00 A2999 RMK AO2 LTG DSNT SW T00720000
KEEO 101953Z AUTO 00000KT 10SM SCT044 SCT055 08/00 A2998 RMK AO2 LTG DSNT SW RAB26E42 SLP119 P0000 T00780000
KEEO 101939Z AUTO 19009KT 10SM -RA SCT024 BKN044 BKN055 08/01 A2999 RMK AO2 RAB26 P0000 T00780011
KEEO 101932Z AUTO 21009KT 10SM VCTS -RA FEW024 BKN043 OVC050 08/02 A2998 RMK AO2 RAB26 P0000 T00780017
KEEO 101919Z AUTO 10SM VCTS BKN026 BKN040 BKN100 07/01 A2999 RMK AO2 T00720011
KEEO 101853Z AUTO 08005KT 10SM FEW031 07/01 A2999 RMK AO2 SLP125 T00720011
KEEO 101803Z AUTO 15009KT 10SM BKN055 BKN070 07/02 A3000 RMK AO2 LTG DSNT E T00670022
KEEO 101753Z AUTO 18008KT 10SM VCTS BKN055 BKN075 06/02 A3001 RMK AO2 LTG DSNT E RAE09 SLP133 P0000 60003 T00610022 10067 20039 55002
KEEO 101738Z AUTO 18010KT 10SM VCTS FEW050 BKN075 06/03 A3001 RMK AO2 RAE09 P0000 T00560033
KEEO 101710Z AUTO 10004KT 10SM SCT028 BKN039 OVC080 04/01 A3000 RMK AO2 RAE09 P0000 T00440011
KEEO 101653Z AUTO VRB03KT 4SM -RA BKN027 OVC041 04/01 A3000 RMK AO2 RAB1555E15B34 SLP132 P0003 T00440006
KEEO 101642Z AUTO 03004G20KT 2 1/2SM RA SCT018 OVC028 04/00 A3001 RMK AO2 VIS 1 1/2V5 RAB1555E15B34 P0002 T00440000
KEEO 101553Z AUTO 21006KT 10SM OVC026 06/M01 A3001 RMK AO2 SLP132 T00561006
KEEO 101453Z AUTO 23003KT 10SM OVC026 05/00 A3001 RMK AO2 RAB23E35 SLP129 P0000 60000 T00500000 50003
KEEO 101414Z AUTO 20007KT 10SM OVC027 04/00 A3002 RMK AO2 T00440000
KEEO 101353Z AUTO 22004KT 10SM BKN030 OVC035 05/M01 A3002 RMK AO2 SLP131 T00501006
KEEO 101308Z AUTO 24004KT 10SM SCT025 SCT075 04/M01 A3002 RMK AO2 T00441011
KEEO 101253Z AUTO 22009KT 10SM BKN025 04/M01 A3001 RMK AO2 SLP127 T00441006
KEEO 101153Z AUTO 17006KT 10SM FEW022 OVC029 04/M01 A3000 RMK AO2 SLP123 T00441011 10072 20039 55001
KEEO 101135Z AUTO 24005KT 10SM BKN029 BKN039 OVC110 04/M02 A3000 RMK AO2 T00441017
KEEO 101053Z AUTO 03005KT 10SM FEW120 04/M02 A3000 RMK AO2 SLP119 T00391017
KEEO 100953Z AUTO 10006KT 10SM BKN060 04/M03 A3001 RMK AO2 SLP121 T00441033
KEEO 100853Z AUTO 06006KT 10SM SCT070 06/M06 A3001 RMK AO2 SLP116 T00561056 58000
KEEO 100753Z AUTO 00000KT 10SM OVC075 06/M05 A3001 RMK AO2 SLP118 T00611050
KEEO 100653Z AUTO 07007KT 10SM BKN080 OVC095 06/M06 A3001 RMK AO2 SLP119 T00611056 401331039
KEEO 100553Z AUTO 08004KT 10SM OVC085 06/M05 A3001 RMK AO2 SLP122 T00611050 10117 20056 50003
KEEO 100453Z AUTO 34003KT 10SM OVC090 08/M06 A3001 RMK AO2 SLP121 T00781056
KEEO 100353Z AUTO 34007KT 10SM BKN100 OVC110 07/M05 A3001 RMK AO2 SLP126 T00721050
KEEO 100253Z AUTO VRB06KT 10SM FEW070 OVC095 09/M06 A3000 RMK AO2 SLP127 T00891061 53004
KEEO 100153Z AUTO 11008KT 10SM OVC100 09/M07 A2999 RMK AO2 SLP128 T00941072
KEEO 100053Z AUTO 00000KT 10SM FEW100 11/M10 A2998 RMK AO2 SLP129 T01111100
KEEO 092353Z AUTO 34010KT 10SM OVC090 11/M10 A2998 RMK AO2 SLP136 T01111100 10133 20100 53002
KEEO 092253Z AUTO 28008KT 10SM BKN100 12/M11 A2997 RMK AO2 SLP124 T01221106
KEEO 092153Z AUTO VRB05G16KT 10SM BKN080 BKN090 12/M12 A2998 RMK AO2 PK WND 27033/2137 SLP123 T01171117
KEEO 092053Z AUTO 24012G17KT 10SM SCT100 13/M12 A2998 RMK AO2 SLP113 T01281122 56017
KEEO 091953Z AUTO 26010G21KT 220V280 10SM CLR 13/M13 A2999 RMK AO2 SLP112 T01281128
KEEO 091853Z AUTO 28007KT 10SM CLR 11/M12 A3002 RMK AO2 SLP125 T01111122
KEEO 091753Z AUTO 24005KT 10SM CLR 11/M13 A3004 RMK AO2 SLP131 T01061128 10106 21039 56013
KEEO 091653Z AUTO VRB03KT 10SM CLR 09/M14 A3005 RMK AO2 SLP135 T00941139
KEEO 091553Z AUTO 00000KT 10SM CLR 07/M10 A3007 RMK AO2 SLP146 T00721100
KEEO 091453Z AUTO 00000KT 10SM CLR 04/M10 A3008 RMK AO2 SLP154 T00391100 50000
KEEO 091353Z AUTO 00000KT 10SM CLR 01/M09 A3010 RMK AO2 SLP160 T00111089
KEEO 091253Z AUTO 11003KT 10SM CLR M02/M09 A3009 RMK AO2 SLP155 T10171094
KEEO 091153Z AUTO 13003KT 10SM CLR M03/M09 A3008 RMK AO2 SLP157 T10331094 10061 21033 51007
KEEO 091053Z AUTO 09003KT 10SM CLR M01/M09 A3008 RMK AO2 SLP150 T10111094